createdAt,value
2018-07-12T00:00:02.703Z,31.00
2018-07-12T00:01:02.766Z,26.50
2018-07-12T00:02:02.651Z,30.50
2018-07-12T00:03:02.693Z,29.70
2018-07-12T00:04:02.606Z,29.10
2018-07-12T00:05:02.715Z,29.70
2018-07-12T00:06:02.546Z,26.40
2018-07-12T00:07:02.660Z,28.50
2018-07-12T00:08:02.494Z,27.50
2018-07-12T00:09:02.513Z,27.10
2018-07-12T00:10:02.480Z,26.20
2018-07-12T00:11:02.536Z,23.50
2018-07-12T00:12:02.396Z,25.10
2018-07-12T00:13:02.452Z,25.50
2018-07-12T00:14:02.350Z,22.20
2018-07-12T00:15:02.349Z,22.30
2018-07-12T00:16:02.296Z,20.30
2018-07-12T00:17:02.360Z,20.20
2018-07-12T00:18:02.240Z,21.70
2018-07-12T00:19:03.296Z,22.40
2018-07-12T00:20:02.209Z,20.30
2018-07-12T00:21:02.277Z,21.70
2018-07-12T00:22:02.150Z,21.30
2018-07-12T00:23:02.190Z,22.60
2018-07-12T00:24:02.095Z,19.50
2018-07-12T00:25:02.111Z,20.80
2018-07-12T00:26:02.068Z,22.70
2018-07-12T00:27:02.151Z,23.00
2018-07-12T00:28:01.998Z,23.90
2018-07-12T00:29:02.033Z,26.90
2018-07-12T00:30:01.938Z,20.30
2018-07-12T00:31:01.932Z,20.60
2018-07-12T00:32:01.911Z,20.40
2018-07-12T00:33:02.032Z,22.90
2018-07-12T00:34:01.863Z,21.30
2018-07-12T00:35:02.903Z,27.70
2018-07-12T00:39:47.156Z,27.00
2018-07-12T00:40:44.490Z,23.70
2018-07-12T00:41:44.444Z,23.20
2018-07-12T00:42:44.497Z,21.40
2018-07-12T00:43:44.391Z,21.70
2018-07-12T00:44:44.410Z,20.50
2018-07-12T00:45:44.351Z,24.30
2018-07-12T00:46:44.427Z,24.30
2018-07-12T00:47:44.297Z,20.80
2018-07-12T00:48:44.359Z,23.10
2018-07-12T00:49:44.236Z,21.40
2018-07-12T00:50:46.301Z,24.60
2018-07-12T00:51:44.189Z,21.90
2018-07-12T00:52:45.180Z,23.10
2018-07-12T00:53:44.174Z,24.90
2018-07-12T00:54:44.168Z,28.00
2018-07-12T00:55:44.088Z,28.10
2018-07-12T00:56:44.078Z,28.50
2018-07-12T00:57:44.100Z,27.40
2018-07-12T00:58:44.089Z,31.50
2018-07-12T00:59:43.979Z,30.70
2018-07-12T01:00:44.002Z,29.90
2018-07-12T01:01:43.936Z,37.50
2018-07-12T01:02:44.022Z,38.00
2018-07-12T01:03:43.876Z,36.30
2018-07-12T01:04:43.939Z,37.50
2018-07-12T01:05:43.827Z,36.50
2018-07-12T01:06:43.839Z,41.20
2018-07-12T01:07:43.789Z,40.80
2018-07-12T01:08:43.854Z,46.30
2018-07-12T01:09:43.730Z,41.80
2018-07-12T01:10:44.793Z,40.00
2018-07-12T01:11:43.675Z,44.40
2018-07-12T01:12:44.702Z,46.50
2018-07-12T01:13:43.621Z,47.60
2018-07-12T01:14:43.626Z,45.00
2018-07-12T01:15:43.570Z,49.70
2018-07-12T01:16:43.611Z,58.90
2018-07-12T01:17:43.540Z,54.40
2018-07-12T01:19:29.277Z,52.80
2018-07-12T01:20:29.291Z,50.80
2018-07-12T01:21:29.193Z,45.60
2018-07-12T01:22:29.198Z,51.50
2018-07-12T01:23:29.140Z,56.30
2018-07-12T01:24:30.248Z,56.20
2018-07-12T01:25:29.084Z,65.00
2018-07-12T01:26:29.138Z,53.90
2018-07-12T01:27:29.051Z,54.60
2018-07-12T01:28:29.034Z,55.30
2018-07-12T01:29:28.987Z,60.90
2018-07-12T01:30:29.045Z,59.10
2018-07-12T01:31:28.939Z,58.10
2018-07-12T01:32:28.958Z,60.00
2018-07-12T01:33:28.926Z,62.20
2018-07-12T01:34:28.973Z,61.00
2018-07-12T01:35:28.832Z,68.60
2018-07-12T01:36:28.894Z,63.80
2018-07-12T01:37:28.789Z,67.00
2018-07-12T01:38:28.798Z,70.10
2018-07-12T01:39:28.737Z,73.50
2018-07-12T01:40:28.811Z,66.30
2018-07-12T01:41:28.690Z,71.00
2018-07-12T01:42:28.709Z,68.00
2018-07-12T01:43:28.642Z,65.70
2018-07-12T01:44:29.646Z,68.40
2018-07-12T01:45:28.579Z,73.30
2018-07-12T01:46:28.639Z,73.90
2018-07-12T01:47:28.521Z,72.10
2018-07-12T01:48:28.541Z,72.20
2018-07-12T01:49:28.489Z,85.20
2018-07-12T01:50:28.552Z,75.10
2018-07-12T01:51:28.428Z,76.70
2018-07-12T01:52:28.491Z,85.20
2018-07-12T01:53:28.382Z,76.90
2018-07-12T01:54:28.377Z,75.90
2018-07-12T01:55:28.321Z,79.60
2018-07-12T01:56:28.398Z,87.40
2018-07-12T01:57:28.294Z,79.80
2018-07-12T01:58:28.298Z,75.30
2018-07-12T01:59:28.225Z,77.60
2018-07-12T02:00:29.276Z,74.50
2018-07-12T02:01:28.167Z,73.20
2018-07-12T02:02:30.184Z,70.90
2018-07-12T02:03:28.117Z,76.60
2018-07-12T02:04:30.188Z,68.60
2018-07-12T02:05:28.072Z,75.20
2018-07-12T02:06:28.153Z,81.10
2018-07-12T02:07:28.021Z,80.40
2018-07-12T02:08:29.083Z,80.70
2018-07-12T02:09:27.961Z,83.80
2018-07-12T02:10:28.006Z,78.90
2018-07-12T02:11:27.909Z,89.40
2018-07-12T02:12:27.978Z,82.90
2018-07-12T02:13:27.879Z,87.00
2018-07-12T02:14:27.896Z,80.30
2018-07-12T02:15:27.806Z,86.00
2018-07-12T02:16:27.811Z,87.70
2018-07-12T02:17:27.766Z,93.10
2018-07-12T02:18:27.816Z,79.50
2018-07-12T02:19:27.708Z,79.40
2018-07-12T02:20:27.735Z,86.30
2018-07-12T02:21:27.708Z,83.70
2018-07-12T02:22:28.674Z,89.60
2018-07-12T02:23:27.615Z,85.60
2018-07-12T02:24:27.646Z,93.00
2018-07-12T02:25:27.548Z,98.60
2018-07-12T02:26:27.575Z,89.40
2018-07-12T02:27:27.556Z,88.00
2018-07-12T02:28:27.569Z,89.20
2018-07-12T02:29:27.456Z,88.00
2018-07-12T02:30:27.496Z,81.40
2018-07-12T02:31:27.413Z,78.10
2018-07-12T02:32:27.407Z,80.80
2018-07-12T02:33:27.378Z,81.80
2018-07-12T02:35:10.705Z,94.10
2018-07-12T02:36:11.665Z,90.10
2018-07-12T02:53:06.760Z,98.00
2018-07-12T02:54:06.678Z,89.50
2018-07-12T02:55:07.682Z,91.70
2018-07-12T02:56:06.635Z,86.70
2018-07-12T02:57:06.664Z,82.60
2018-07-12T02:58:06.577Z,88.40
2018-07-12T02:59:06.580Z,93.60
2018-07-12T03:00:06.520Z,92.80
2018-07-12T03:01:06.691Z,80.70
2018-07-12T03:02:06.481Z,92.80
2018-07-12T03:03:06.500Z,89.20
2018-07-12T03:04:06.425Z,85.70
2018-07-12T03:05:06.413Z,87.10
2018-07-12T03:06:06.373Z,82.60
2018-07-12T03:07:06.423Z,83.40
2018-07-12T03:08:06.322Z,84.30
2018-07-12T03:09:06.330Z,82.10
2018-07-12T03:10:06.267Z,80.10
2018-07-12T03:11:06.352Z,72.30
2018-07-12T03:12:06.226Z,79.00
2018-07-12T03:13:06.266Z,74.20
2018-07-12T03:14:06.169Z,73.90
2018-07-12T03:15:06.179Z,79.30
2018-07-12T03:16:06.134Z,77.90
2018-07-12T03:17:07.101Z,81.00
2018-07-12T03:18:06.070Z,81.40
2018-07-12T03:19:06.090Z,76.80
2018-07-12T03:20:06.011Z,77.50
2018-07-12T03:21:06.007Z,87.40
2018-07-12T03:22:05.956Z,79.00
2018-07-12T03:23:06.025Z,80.40
2018-07-12T03:24:05.925Z,77.50
2018-07-12T03:25:05.924Z,76.70
2018-07-12T03:26:05.869Z,74.10
2018-07-12T03:27:06.046Z,71.70
2018-07-12T03:28:05.820Z,71.40
2018-07-12T03:29:05.878Z,71.60
2018-07-12T03:30:05.760Z,65.60
2018-07-12T03:31:05.763Z,63.70
2018-07-12T03:32:05.708Z,64.20
2018-07-12T03:33:06.708Z,81.40
2018-07-12T03:34:05.653Z,69.00
2018-07-12T03:35:05.700Z,82.00
2018-07-12T03:36:05.640Z,77.20
2018-07-12T03:37:05.658Z,76.20
2018-07-12T03:42:21.104Z,86.80
2018-07-12T03:43:21.098Z,81.90
2018-07-12T03:44:21.009Z,84.10
2018-07-12T03:45:22.068Z,81.30
2018-07-12T03:46:20.955Z,75.30
2018-07-12T03:47:22.974Z,76.30
2018-07-12T03:48:20.902Z,81.50
2018-07-12T03:49:20.937Z,77.00
2018-07-12T03:50:20.846Z,77.60
2018-07-12T03:51:20.847Z,74.00
2018-07-12T03:52:20.795Z,71.10
2018-07-12T03:53:20.863Z,66.90
2018-07-12T03:54:20.739Z,69.40
2018-07-12T03:55:20.774Z,75.20
2018-07-12T03:56:20.728Z,74.30
2018-07-12T03:57:20.780Z,70.00
2018-07-12T03:58:20.683Z,68.80
2018-07-12T04:07:12.633Z,69.00
2018-07-12T04:08:12.488Z,62.80
2018-07-12T04:09:12.580Z,69.80
2018-07-12T04:10:12.433Z,68.10
2018-07-12T04:11:12.560Z,62.80
2018-07-12T04:12:12.381Z,62.20
2018-07-12T04:13:12.382Z,62.70
2018-07-12T04:14:12.347Z,62.80
2018-07-12T04:15:12.448Z,58.30
2018-07-12T04:16:12.301Z,52.00
2018-07-12T04:17:13.422Z,58.40
2018-07-12T04:18:12.252Z,60.60
2018-07-12T04:19:13.240Z,61.70
2018-07-12T04:20:12.179Z,62.30
2018-07-12T04:21:13.257Z,57.20
2018-07-12T04:22:12.131Z,62.60
2018-07-12T04:23:12.139Z,60.10
2018-07-12T04:24:12.092Z,64.30
2018-07-12T04:25:13.074Z,61.20
2018-07-12T04:26:12.041Z,62.40
2018-07-12T04:27:12.057Z,59.90
2018-07-12T04:28:12.006Z,62.70
2018-07-12T04:29:11.967Z,55.60
2018-07-12T04:30:11.938Z,60.00
2018-07-12T04:31:11.990Z,56.40
2018-07-12T04:32:11.892Z,48.30
2018-07-12T04:33:11.906Z,43.70
2018-07-12T04:34:11.843Z,48.80
2018-07-12T04:35:11.955Z,47.00
2018-07-12T04:36:11.779Z,46.70
2018-07-12T04:37:12.840Z,44.10
2018-07-12T04:38:11.736Z,40.60
2018-07-12T04:39:11.740Z,37.20
2018-07-12T04:40:11.723Z,39.70
2018-07-12T04:41:11.752Z,35.50
2018-07-12T04:42:11.639Z,34.10
2018-07-12T04:43:12.686Z,34.10
2018-07-12T04:44:11.630Z,32.20
2018-07-12T04:45:11.660Z,30.70
2018-07-12T04:46:11.530Z,31.00
2018-07-12T04:47:11.604Z,29.60
2018-07-12T04:48:11.480Z,29.30
2018-07-12T04:49:11.484Z,29.50
2018-07-12T04:50:11.431Z,22.20
2018-07-12T04:51:11.572Z,22.50
2018-07-12T04:52:11.383Z,23.70
2018-07-12T04:53:11.481Z,25.60
2018-07-12T04:54:11.344Z,29.10
2018-07-12T04:55:11.323Z,30.80
2018-07-12T04:56:11.281Z,26.20
2018-07-12T04:57:12.353Z,19.70
2018-07-12T04:58:11.267Z,23.90
2018-07-12T04:59:11.268Z,22.10
2018-07-12T05:00:11.187Z,20.30
2018-07-12T05:01:11.263Z,21.80
2018-07-12T05:02:11.123Z,21.10
2018-07-12T05:03:11.170Z,25.70
2018-07-12T05:04:11.101Z,22.00
2018-07-12T05:05:12.104Z,20.50
2018-07-12T05:06:11.049Z,21.60
2018-07-12T05:07:12.009Z,18.10
2018-07-12T05:08:10.989Z,21.20
2018-07-12T05:09:11.014Z,21.50
2018-07-12T05:10:10.920Z,19.70
2018-07-12T05:12:46.405Z,21.60
2018-07-12T05:13:46.324Z,22.10
2018-07-12T05:14:46.263Z,23.50
2018-07-12T05:15:47.244Z,20.50
2018-07-12T05:16:46.219Z,22.40
2018-07-12T05:17:46.198Z,19.20
2018-07-12T05:18:46.193Z,20.40
2018-07-12T05:19:46.160Z,19.10
2018-07-12T05:20:46.109Z,20.90
2018-07-12T05:21:46.091Z,20.70
2018-07-12T05:22:46.105Z,21.00
2018-07-12T05:23:46.055Z,21.60
2018-07-12T05:24:46.021Z,21.40
2018-07-12T05:25:46.014Z,17.50
2018-07-12T05:26:45.973Z,24.00
2018-07-12T05:27:45.954Z,23.00
2018-07-12T05:28:45.926Z,19.80
2018-07-12T05:29:45.903Z,19.50
2018-07-12T05:30:45.920Z,21.60
2018-07-12T05:31:45.842Z,23.60
2018-07-12T05:32:45.816Z,24.30
2018-07-12T05:33:45.791Z,20.80
2018-07-12T05:34:45.774Z,22.50
2018-07-12T05:35:45.743Z,21.90
2018-07-12T05:36:45.710Z,27.30
2018-07-12T05:37:46.684Z,22.70
2018-07-12T05:38:45.660Z,20.90
2018-07-12T05:39:45.645Z,25.20
2018-07-12T05:40:45.608Z,22.30
2018-07-12T05:41:45.591Z,24.90
2018-07-12T05:42:45.575Z,23.80
2018-07-12T05:43:46.569Z,25.50
2018-07-12T05:44:45.501Z,21.10
2018-07-12T05:45:45.502Z,26.00
2018-07-12T05:46:45.504Z,20.90
2018-07-12T05:47:45.444Z,28.80
2018-07-12T05:48:45.412Z,24.90
2018-07-12T05:49:45.393Z,24.60
2018-07-12T05:50:45.349Z,26.20
2018-07-12T05:51:45.348Z,23.20
2018-07-12T05:52:45.312Z,22.80
2018-07-12T05:53:45.281Z,25.00
2018-07-12T05:54:45.252Z,29.30
2018-07-12T05:55:46.236Z,22.10
2018-07-12T05:56:45.200Z,22.10
2018-07-12T05:57:47.188Z,31.80
2018-07-12T05:58:45.146Z,18.80
2018-07-12T05:59:47.139Z,24.00
2018-07-12T06:00:45.098Z,46.00
2018-07-12T06:01:45.101Z,24.80
2018-07-12T06:02:45.051Z,23.50
2018-07-12T06:03:56.021Z,24.40
2018-07-12T06:04:45.020Z,25.20
2018-07-12T06:05:44.980Z,20.70
2018-07-12T06:12:54.897Z,30.60
2018-07-12T06:13:54.841Z,23.80
2018-07-12T06:14:54.800Z,19.30
2018-07-12T06:15:54.792Z,24.60
2018-07-12T06:16:54.790Z,22.90
2018-07-12T06:17:54.739Z,20.50
2018-07-12T06:18:54.713Z,21.60
2018-07-12T06:19:54.771Z,20.30
2018-07-12T06:20:54.646Z,17.40
2018-07-12T06:21:54.626Z,19.10
2018-07-12T06:22:54.602Z,22.70
2018-07-12T06:23:54.593Z,21.80
2018-07-12T06:24:54.568Z,26.20
2018-07-12T06:25:54.604Z,24.80
2018-07-12T06:26:54.498Z,18.70
2018-07-12T06:27:54.638Z,22.60
2018-07-12T06:28:54.569Z,19.80
2018-07-12T06:29:54.523Z,19.10
2018-07-12T06:30:54.419Z,24.80
2018-07-12T06:31:54.463Z,18.70
2018-07-12T06:32:54.343Z,18.80
2018-07-12T06:33:54.343Z,20.60
2018-07-12T06:34:54.300Z,16.00
2018-07-12T06:35:54.363Z,21.80
2018-07-12T06:36:54.241Z,18.50
2018-07-12T06:37:54.274Z,18.90
2018-07-12T06:38:54.222Z,17.00
2018-07-12T06:39:54.288Z,22.10
2018-07-12T06:40:54.173Z,17.80
2018-07-12T06:41:55.239Z,19.30
2018-07-12T06:42:54.092Z,17.00
2018-07-12T06:43:54.110Z,15.20
2018-07-12T06:44:54.047Z,16.50
2018-07-12T06:45:54.121Z,18.80
2018-07-12T06:46:54.005Z,22.10
2018-07-12T06:48:41.236Z,17.90
2018-07-12T06:49:43.317Z,15.90
2018-07-12T06:50:41.151Z,15.40
2018-07-12T06:51:41.158Z,16.10
2018-07-12T06:52:41.103Z,16.90
2018-07-12T06:53:41.176Z,15.90
2018-07-12T06:54:41.051Z,14.30
2018-07-12T06:55:42.095Z,13.20
2018-07-12T06:56:41.005Z,20.50
2018-07-12T06:57:40.984Z,16.00
2018-07-12T06:58:40.945Z,17.30
2018-07-12T06:59:42.022Z,14.60
2018-07-12T07:00:40.967Z,16.70
2018-07-12T07:01:40.908Z,18.60
2018-07-12T07:02:40.850Z,13.70
2018-07-12T07:03:40.917Z,20.10
2018-07-12T07:04:40.800Z,19.50
2018-07-12T07:05:40.844Z,17.70
2018-07-12T07:06:40.775Z,17.40
2018-07-12T07:07:45.554Z,18.80
2018-07-12T07:08:40.698Z,17.00
2018-07-12T07:09:40.757Z,14.30
2018-07-12T07:10:40.645Z,21.30
2018-07-12T07:11:47.533Z,13.90
2018-07-12T07:12:40.596Z,12.80
2018-07-12T07:13:46.519Z,13.60
2018-07-12T07:14:40.578Z,16.50
2018-07-12T07:15:40.517Z,15.80
2018-07-12T07:16:41.568Z,17.10
2018-07-12T07:17:40.467Z,14.70
2018-07-12T07:18:42.547Z,14.50
2018-07-12T07:19:40.411Z,15.20
2018-07-12T07:20:40.473Z,13.70
2018-07-12T07:21:40.371Z,17.10
2018-07-12T07:22:40.442Z,12.80
2018-07-12T07:23:40.320Z,15.40
2018-07-12T07:24:40.356Z,18.70
2018-07-12T07:25:40.327Z,16.50
2018-07-12T07:26:40.367Z,13.60
2018-07-12T07:27:40.257Z,13.70
2018-07-12T07:28:40.276Z,15.10
2018-07-12T07:29:40.209Z,14.80
2018-07-12T07:30:40.187Z,16.70
2018-07-12T07:31:40.119Z,14.70
2018-07-12T07:32:40.188Z,15.40
2018-07-12T07:33:40.064Z,16.50
2018-07-12T07:34:40.105Z,16.10
2018-07-12T07:35:40.060Z,14.70
2018-07-12T07:36:40.010Z,10.50
2018-07-12T07:37:39.957Z,14.60
2018-07-12T07:38:40.023Z,14.00
2018-07-12T07:39:39.918Z,16.70
2018-07-12T07:40:39.928Z,15.00
2018-07-12T07:41:39.871Z,31.30
2018-07-12T07:42:39.959Z,15.20
2018-07-12T07:43:39.814Z,14.30
2018-07-12T07:44:39.859Z,11.70
2018-07-12T07:45:39.775Z,17.10
2018-07-12T07:46:40.795Z,13.40
2018-07-12T07:47:39.724Z,15.20
2018-07-12T07:48:39.797Z,14.30
2018-07-12T07:49:39.667Z,16.40
2018-07-12T07:50:39.797Z,10.90
2018-07-12T07:51:39.619Z,10.00
2018-07-12T07:52:39.707Z,9.90
2018-07-12T07:53:39.572Z,15.50
2018-07-12T07:54:39.609Z,13.20
2018-07-12T07:55:39.526Z,12.80
2018-07-12T07:56:39.527Z,11.60
2018-07-12T07:57:39.465Z,13.00
2018-07-12T07:58:39.542Z,17.40
2018-07-12T07:59:39.423Z,15.00
2018-07-12T08:00:39.449Z,12.90
2018-07-12T08:01:39.362Z,11.30
2018-07-12T08:02:39.366Z,14.30
2018-07-12T08:03:39.313Z,14.50
2018-07-12T08:04:39.368Z,12.20
2018-07-12T08:05:39.270Z,10.00
2018-07-12T08:06:39.291Z,11.60
2018-07-12T08:07:39.212Z,12.90
2018-07-12T08:08:39.324Z,14.90
2018-07-12T08:09:39.163Z,19.00
2018-07-12T08:10:39.207Z,20.60
2018-07-12T08:11:39.116Z,17.30
2018-07-12T08:12:39.094Z,15.70
2018-07-12T08:13:39.076Z,38.20
2018-07-12T08:14:39.134Z,17.00
2018-07-12T08:15:39.015Z,12.50
2018-07-12T08:16:39.046Z,11.60
2018-07-12T08:17:38.967Z,11.10
2018-07-12T08:18:38.955Z,20.00
2018-07-12T08:19:38.918Z,12.60
2018-07-12T08:20:38.960Z,12.40
2018-07-12T08:21:38.888Z,12.80
2018-07-12T08:22:39.912Z,11.60
2018-07-12T08:23:38.842Z,13.20
2018-07-12T08:24:38.894Z,16.00
2018-07-12T08:25:38.761Z,18.90
2018-07-12T08:26:38.806Z,23.30
2018-07-12T08:27:38.711Z,13.50
2018-07-12T08:28:38.704Z,10.60
2018-07-12T08:29:38.665Z,16.10
2018-07-12T08:30:38.726Z,9.00
2018-07-12T08:31:38.614Z,10.10
2018-07-12T08:32:38.669Z,11.60
2018-07-12T08:33:38.569Z,10.90
2018-07-12T08:34:38.687Z,15.10
2018-07-12T08:35:38.521Z,12.90
2018-07-12T08:36:38.565Z,8.50
2018-07-12T08:37:38.479Z,13.80
2018-07-12T08:38:38.464Z,16.80
2018-07-12T08:39:38.422Z,13.90
2018-07-12T08:40:38.497Z,10.70
2018-07-12T08:41:38.367Z,8.70
2018-07-12T08:42:38.393Z,9.10
2018-07-12T08:43:38.323Z,14.20
2018-07-12T08:44:38.411Z,9.70
2018-07-12T08:45:38.269Z,11.90
2018-07-12T08:46:38.249Z,7.70
2018-07-12T08:47:38.226Z,11.40
2018-07-12T08:48:38.232Z,10.30
2018-07-12T08:49:38.170Z,9.90
2018-07-12T08:50:38.146Z,8.00
2018-07-12T08:51:38.120Z,8.30
2018-07-12T08:52:38.114Z,14.30
2018-07-12T08:53:38.072Z,8.70
2018-07-12T08:54:38.063Z,14.70
2018-07-12T08:55:38.022Z,13.40
2018-07-12T08:56:38.006Z,7.50
2018-07-12T08:57:37.970Z,10.40
2018-07-12T08:58:37.945Z,9.50
2018-07-12T08:59:37.928Z,8.00
2018-07-12T09:00:37.936Z,6.90
2018-07-12T09:01:37.873Z,8.60
2018-07-12T09:02:37.908Z,8.30
2018-07-12T09:03:37.822Z,6.80
2018-07-12T09:04:37.819Z,7.80
2018-07-12T09:05:37.779Z,7.00
2018-07-12T09:06:37.758Z,14.90
2018-07-12T09:07:37.730Z,8.10
2018-07-12T09:08:37.711Z,7.50
2018-07-12T09:09:37.676Z,8.00
2018-07-12T09:10:37.663Z,7.20
2018-07-12T09:11:37.638Z,7.30
2018-07-12T09:12:37.611Z,11.40
2018-07-12T09:13:37.687Z,11.40
2018-07-12T09:14:37.560Z,8.50
2018-07-12T09:15:37.689Z,10.40
2018-07-12T09:16:37.523Z,11.00
2018-07-12T09:17:37.516Z,6.00
2018-07-12T09:18:37.457Z,8.80
2018-07-12T09:19:37.433Z,7.00
2018-07-12T09:20:37.412Z,12.00
2018-07-12T09:21:37.440Z,10.30
2018-07-12T09:22:37.358Z,9.50
2018-07-12T09:23:37.341Z,11.50
2018-07-12T09:24:37.323Z,10.70
2018-07-12T09:25:37.294Z,8.90
2018-07-12T09:26:37.273Z,8.40
2018-07-12T09:27:37.250Z,7.10
2018-07-12T09:28:37.217Z,7.10
2018-07-12T09:29:37.230Z,7.70
2018-07-12T09:30:37.176Z,8.30
2018-07-12T09:31:37.154Z,8.80
2018-07-12T09:32:37.125Z,13.80
2018-07-12T09:33:37.119Z,11.90
2018-07-12T09:34:37.076Z,9.00
2018-07-12T09:35:37.065Z,8.30
2018-07-12T09:36:37.036Z,8.00
2018-07-12T09:37:37.027Z,9.30
2018-07-12T09:38:36.982Z,12.40
2018-07-12T09:39:37.008Z,9.00
2018-07-12T09:40:36.943Z,11.00
2018-07-12T09:41:36.921Z,9.50
2018-07-12T09:42:36.930Z,10.00
2018-07-12T09:43:36.875Z,11.00
2018-07-12T09:44:36.842Z,7.60
2018-07-12T09:45:36.822Z,13.50
2018-07-12T09:46:36.814Z,9.60
2018-07-12T09:47:36.981Z,12.60
2018-07-12T09:48:36.756Z,13.00
2018-07-12T09:49:36.769Z,11.90
2018-07-12T09:50:36.701Z,10.70
2018-07-12T09:51:36.793Z,10.70
2018-07-12T09:52:36.650Z,12.00
2018-07-12T09:53:36.693Z,8.40
2018-07-12T09:54:36.601Z,11.70
2018-07-12T09:55:36.634Z,8.00
2018-07-12T09:56:36.575Z,8.40
2018-07-12T09:57:36.629Z,10.70
2018-07-12T09:58:36.516Z,8.40
2018-07-12T09:59:36.551Z,13.20
2018-07-12T10:00:36.461Z,9.70
2018-07-12T10:01:36.546Z,9.60
2018-07-12T10:02:36.412Z,30.60
2018-07-12T10:03:37.496Z,10.70
2018-07-12T10:04:36.368Z,15.50
2018-07-12T10:05:36.352Z,14.10
2018-07-12T10:06:36.334Z,13.70
2018-07-12T10:07:36.309Z,10.90
2018-07-12T10:08:36.321Z,19.60
2018-07-12T10:09:36.264Z,14.00
2018-07-12T10:10:36.302Z,12.10
2018-07-12T10:11:36.201Z,14.00
2018-07-12T10:12:36.180Z,14.40
2018-07-12T10:13:36.183Z,12.90
2018-07-12T10:14:36.265Z,12.20
2018-07-12T10:15:36.107Z,8.70
2018-07-12T10:16:36.089Z,9.80
2018-07-12T10:17:36.069Z,11.90
2018-07-12T10:18:36.043Z,11.60
2018-07-12T10:19:36.021Z,9.40
2018-07-12T10:20:36.014Z,11.60
2018-07-12T10:21:35.975Z,12.70
2018-07-12T10:22:35.993Z,10.90
2018-07-12T10:23:35.921Z,12.70
2018-07-12T10:24:35.912Z,12.20
2018-07-12T10:25:35.875Z,10.70
2018-07-12T10:26:35.860Z,8.00
2018-07-12T10:27:35.829Z,8.10
2018-07-12T10:28:35.813Z,8.90
2018-07-12T10:29:35.788Z,8.70
2018-07-12T10:30:35.754Z,14.10
2018-07-12T10:31:35.732Z,11.40
2018-07-12T10:32:35.721Z,11.40
2018-07-12T10:33:35.686Z,10.10
2018-07-12T10:34:35.680Z,11.70
2018-07-12T10:35:35.640Z,9.30
2018-07-12T10:36:35.644Z,13.40
2018-07-12T10:37:35.636Z,10.40
2018-07-12T10:38:35.672Z,10.50
2018-07-12T10:39:35.568Z,16.40
2018-07-12T10:40:36.591Z,12.00
2018-07-12T10:41:35.508Z,15.40
2018-07-12T10:43:21.257Z,18.80
2018-07-12T10:44:21.274Z,15.00
2018-07-12T10:45:21.179Z,10.20
2018-07-12T10:46:21.175Z,14.70
2018-07-12T10:47:21.126Z,15.00
2018-07-12T10:48:21.183Z,11.70
2018-07-12T10:49:21.098Z,11.50
2018-07-12T10:50:21.096Z,12.40
2018-07-12T10:51:21.049Z,10.80
2018-07-12T10:52:21.114Z,12.00
2018-07-12T10:53:20.994Z,12.10
2018-07-12T10:54:21.011Z,9.70
2018-07-12T10:55:20.966Z,10.60
2018-07-12T10:56:21.048Z,18.00
2018-07-12T10:57:20.908Z,11.40
2018-07-12T10:58:20.964Z,12.40
2018-07-12T10:59:20.886Z,11.20
2018-07-12T11:00:20.857Z,13.90
2018-07-12T11:01:20.816Z,12.70
2018-07-12T11:02:20.862Z,12.30
2018-07-12T11:03:20.760Z,13.60
2018-07-12T11:04:20.773Z,10.70
2018-07-12T11:05:20.720Z,11.40
2018-07-12T11:06:20.795Z,12.20
2018-07-12T11:07:20.667Z,16.20
2018-07-12T11:08:20.693Z,13.70
2018-07-12T11:09:20.630Z,11.60
2018-07-12T11:10:21.648Z,13.10
2018-07-12T11:11:20.588Z,10.90
2018-07-12T11:12:20.789Z,13.20
2018-07-12T11:13:20.528Z,10.70
2018-07-12T11:14:20.861Z,12.40
2018-07-12T11:15:20.787Z,13.60
2018-07-12T11:16:20.460Z,13.10
2018-07-12T11:17:20.515Z,10.90
2018-07-12T11:18:20.413Z,13.30
2018-07-12T11:19:20.442Z,12.30
2018-07-12T11:20:20.369Z,10.90
2018-07-12T11:21:20.440Z,11.00
2018-07-12T11:22:20.355Z,13.50
2018-07-12T11:23:20.360Z,10.50
2018-07-12T11:24:20.281Z,11.10
2018-07-12T11:25:20.288Z,10.50
2018-07-12T11:26:20.241Z,14.20
2018-07-12T11:27:20.243Z,12.20
2018-07-12T11:28:20.194Z,10.00
2018-07-12T11:29:20.188Z,21.80
2018-07-12T11:30:20.205Z,11.90
2018-07-12T11:31:20.115Z,10.00
2018-07-12T11:32:20.103Z,11.30
2018-07-12T11:33:20.076Z,8.90
2018-07-12T11:34:20.070Z,10.00
2018-07-12T11:35:20.067Z,13.80
2018-07-12T11:36:20.080Z,10.60
2018-07-12T11:37:20.006Z,13.20
2018-07-12T11:38:20.060Z,8.80
2018-07-12T11:40:06.226Z,8.10
2018-07-12T11:41:06.133Z,12.20
2018-07-12T11:42:06.118Z,9.40
2018-07-12T11:43:06.081Z,9.90
2018-07-12T11:44:06.073Z,9.10
2018-07-12T11:45:06.039Z,10.60
2018-07-12T11:46:06.028Z,12.20
2018-07-12T11:47:05.995Z,10.10
2018-07-12T11:48:05.962Z,10.20
2018-07-12T11:49:05.942Z,11.70
2018-07-12T11:50:05.916Z,11.60
2018-07-12T11:51:05.889Z,8.40
2018-07-12T11:52:05.890Z,8.80
2018-07-12T11:53:05.843Z,10.50
2018-07-12T11:54:05.815Z,7.40
2018-07-12T11:55:05.801Z,10.50
2018-07-12T11:56:05.798Z,8.30
2018-07-12T11:57:05.760Z,10.00
2018-07-12T11:58:05.723Z,8.10
2018-07-12T11:59:05.713Z,9.30
2018-07-12T12:00:05.676Z,11.10
2018-07-12T12:01:05.660Z,11.10
2018-07-12T12:02:05.709Z,8.90
2018-07-12T12:03:07.765Z,8.60
2018-07-12T12:04:05.589Z,11.40
2018-07-12T12:05:05.562Z,9.90
2018-07-12T12:06:05.545Z,9.30
2018-07-12T12:07:05.523Z,8.40
2018-07-12T12:08:05.491Z,10.80
2018-07-12T12:09:05.885Z,10.50
2018-07-12T12:10:05.450Z,7.70
2018-07-12T12:11:05.435Z,9.00
2018-07-12T12:12:05.406Z,4.90
2018-07-12T12:13:07.382Z,6.30
2018-07-12T12:14:05.358Z,7.70
2018-07-12T12:15:05.356Z,4.90
2018-07-12T12:16:05.310Z,6.30
2018-07-12T12:17:05.289Z,8.30
2018-07-12T12:18:05.272Z,10.40
2018-07-12T12:19:05.258Z,11.40
2018-07-12T12:20:05.211Z,8.90
2018-07-12T12:21:05.193Z,7.40
2018-07-12T12:22:05.169Z,7.20
2018-07-12T12:23:05.159Z,9.20
2018-07-12T12:24:05.129Z,8.10
2018-07-12T12:25:05.116Z,7.80
2018-07-12T12:26:05.085Z,9.20
2018-07-12T12:27:05.076Z,7.90
2018-07-12T12:28:05.036Z,8.10
2018-07-12T12:29:05.033Z,9.80
2018-07-12T12:30:05.007Z,17.20
2018-07-12T12:31:04.980Z,8.40
2018-07-12T12:32:04.963Z,12.00
2018-07-12T12:33:04.928Z,8.80
2018-07-12T12:34:04.903Z,11.70
2018-07-12T12:35:04.882Z,7.60
2018-07-12T12:36:04.884Z,7.70
2018-07-12T12:37:50.619Z,13.40
2018-07-12T12:38:50.574Z,7.40
2018-07-12T12:39:50.559Z,8.70
2018-07-12T12:40:50.520Z,10.20
2018-07-12T12:41:50.559Z,8.60
2018-07-12T12:42:50.497Z,8.10
2018-07-12T12:43:50.456Z,7.10
2018-07-12T12:44:51.438Z,11.30
2018-07-12T12:45:50.397Z,8.70
2018-07-12T12:46:50.389Z,7.50
2018-07-12T12:47:50.407Z,7.60
2018-07-12T12:48:50.418Z,6.60
2018-07-12T12:49:50.308Z,5.40
2018-07-12T12:50:50.308Z,6.40
2018-07-12T12:51:50.263Z,7.00
2018-07-12T12:52:50.250Z,7.00
2018-07-12T12:53:50.242Z,9.20
2018-07-12T12:54:50.200Z,7.30
2018-07-12T12:55:50.176Z,6.50
2018-07-12T12:56:50.165Z,11.10
2018-07-12T12:57:50.146Z,7.60
2018-07-12T12:58:50.112Z,8.00
2018-07-12T12:59:50.082Z,6.20
2018-07-12T13:00:50.065Z,5.90
2018-07-12T13:01:50.040Z,5.60
2018-07-12T13:02:51.042Z,7.00
2018-07-12T13:03:49.998Z,6.90
2018-07-12T13:04:49.974Z,8.80
2018-07-12T13:05:50.168Z,5.70
2018-07-12T13:06:49.927Z,6.00
2018-07-12T13:07:49.915Z,9.60
2018-07-12T13:08:49.909Z,7.00
2018-07-12T13:09:49.857Z,6.50
2018-07-12T13:10:49.844Z,11.00
2018-07-12T13:11:49.818Z,8.30
2018-07-12T13:12:49.797Z,9.00
2018-07-12T13:13:49.766Z,7.00
2018-07-12T13:14:49.749Z,8.90
2018-07-12T13:15:49.766Z,7.50
2018-07-12T13:16:49.708Z,8.10
2018-07-12T13:17:49.718Z,9.80
2018-07-12T13:18:49.665Z,7.60
2018-07-12T13:19:49.694Z,10.00
2018-07-12T13:20:49.614Z,10.30
2018-07-12T13:21:49.598Z,7.80
2018-07-12T13:22:49.583Z,7.70
2018-07-12T13:23:49.562Z,12.20
2018-07-12T13:24:49.562Z,8.00
2018-07-12T13:25:49.556Z,9.40
2018-07-12T13:26:49.487Z,9.40
2018-07-12T13:27:49.489Z,7.60
2018-07-12T13:28:49.445Z,6.40
2018-07-12T13:29:49.411Z,7.30
2018-07-12T13:30:50.429Z,10.10
2018-07-12T13:31:49.366Z,6.80
2018-07-12T13:32:49.354Z,6.90
2018-07-12T13:33:49.349Z,6.60
2018-07-12T13:34:49.308Z,5.60
2018-07-12T13:35:49.296Z,24.30
2018-07-12T13:36:49.270Z,11.20
2018-07-12T13:37:49.236Z,8.40
2018-07-12T13:38:49.222Z,5.30
2018-07-12T13:39:49.195Z,8.80
2018-07-12T13:40:50.232Z,9.20